createdAt,value
2018-11-20T00:06:15.895Z,14.00
2018-11-20T00:09:04.078Z,14.83
2018-11-20T00:11:52.255Z,15.77
2018-11-20T00:14:40.439Z,18.30
2018-11-20T00:17:25.246Z,14.80
2018-11-20T03:28:55.816Z,15.03
2018-11-20T03:31:46.630Z,15.93
2018-11-20T04:03:38.992Z,15.67
2018-11-20T04:06:36.411Z,14.00
2018-11-20T04:09:24.117Z,15.13
2018-11-20T04:12:07.673Z,15.57
2018-11-20T04:14:55.831Z,16.20
2018-11-20T04:17:46.796Z,15.37
2018-11-20T04:20:33.107Z,16.93
2018-11-20T04:23:11.856Z,16.87
2018-11-20T04:25:47.823Z,17.97
2018-11-20T04:28:41.611Z,17.53
2018-11-20T04:32:03.762Z,16.40
2018-11-20T04:34:41.704Z,15.90
2018-11-20T04:37:32.606Z,16.40
2018-11-20T04:40:15.594Z,16.33
2018-11-20T04:43:04.604Z,16.33
2018-11-20T04:45:53.124Z,16.33
2018-11-20T04:48:53.605Z,17.17
2018-11-20T04:51:43.573Z,17.30
2018-11-20T04:54:30.432Z,17.20
2018-11-20T04:57:16.891Z,16.60
2018-11-20T05:00:03.522Z,16.17
2018-11-20T05:02:57.403Z,17.30
2018-11-20T05:06:01.412Z,16.70
2018-11-20T05:08:37.566Z,17.43
2018-11-20T05:11:17.118Z,16.30
2018-11-20T05:13:58.955Z,17.00
2018-11-20T05:16:53.182Z,16.03
2018-11-20T05:19:53.722Z,16.93
2018-11-20T05:22:43.532Z,17.00
2018-11-20T05:25:30.092Z,17.53
2018-11-20T05:28:16.758Z,16.70
2018-11-20T05:31:03.277Z,18.53
2018-11-20T05:33:50.006Z,17.03
2018-11-20T05:36:52.995Z,17.23
2018-11-20T05:39:31.480Z,20.13
2018-11-20T05:42:28.536Z,18.13
2018-11-20T05:45:34.582Z,17.80
2018-11-20T05:48:37.528Z,18.10
2018-11-20T05:51:24.336Z,17.63
2018-11-20T05:54:11.033Z,19.20
2018-11-20T05:56:55.672Z,17.50
2018-11-20T05:59:49.799Z,17.60
2018-11-20T06:02:36.145Z,18.33
2018-11-20T06:05:27.048Z,19.50
2018-11-20T06:08:30.159Z,19.00
2018-11-20T06:11:16.976Z,17.03
2018-11-20T06:14:11.039Z,19.60
2018-11-20T06:16:53.499Z,17.93
2018-11-20T06:19:39.777Z,18.30
2018-11-20T06:22:33.793Z,17.87
2018-11-20T06:25:32.659Z,17.27
2018-11-20T06:28:20.879Z,18.17
2018-11-20T06:31:11.864Z,17.43
2018-11-20T06:34:08.783Z,20.03
2018-11-20T06:36:59.462Z,18.20
2018-11-20T06:39:46.072Z,18.30
2018-11-20T06:42:32.941Z,20.03
2018-11-20T06:45:24.931Z,18.20
2018-11-20T06:48:11.520Z,17.80
2018-11-20T06:50:57.828Z,17.70
2018-11-20T06:53:44.692Z,19.53
2018-11-20T06:56:29.058Z,19.03
2018-11-20T06:59:15.700Z,34.00
2018-11-20T07:02:09.660Z,20.23
2018-11-20T07:05:04.671Z,17.90
2018-11-20T07:07:51.333Z,18.77
2018-11-20T07:10:35.168Z,16.80
2018-11-20T07:14:00.525Z,18.00
2018-11-20T07:16:55.573Z,18.77
2018-11-20T07:19:44.294Z,20.53
2018-11-20T07:22:42.092Z,19.13
2018-11-20T07:25:35.875Z,19.10
2018-11-20T07:28:22.858Z,18.27
2018-11-20T07:31:19.919Z,18.53
2018-11-20T07:34:13.835Z,19.57
2018-11-20T07:37:00.628Z,19.20
2018-11-20T07:39:54.690Z,19.83
2018-11-20T07:42:32.873Z,16.73
2018-11-20T07:45:26.613Z,19.00
2018-11-20T07:48:16.746Z,20.80
2018-11-20T07:51:04.996Z,17.60
2018-11-20T07:54:02.230Z,19.03
2018-11-20T07:56:45.468Z,18.70
2018-11-20T07:59:31.912Z,17.40
2018-11-20T08:02:18.429Z,19.17
2018-11-20T08:05:00.539Z,18.70
2018-11-20T08:07:51.712Z,18.40
2018-11-20T08:10:42.641Z,18.77
2018-11-20T08:13:42.721Z,18.60
2018-11-20T08:16:20.695Z,18.77
2018-11-20T08:19:00.127Z,20.30
2018-11-20T08:21:46.852Z,19.07
2018-11-20T08:24:25.412Z,19.33
2018-11-20T08:27:03.801Z,17.70
2018-11-20T08:29:42.777Z,18.93
2018-11-20T08:32:29.589Z,19.47
2018-11-20T08:35:12.104Z,17.90
2018-11-20T08:37:55.009Z,19.63
2018-11-20T08:40:46.066Z,18.90
2018-11-20T08:43:32.796Z,19.20
2018-11-20T08:46:26.713Z,18.50
2018-11-20T08:49:32.929Z,18.77
2018-11-20T08:52:29.859Z,18.20
2018-11-20T08:55:16.530Z,20.50
2018-11-20T08:58:10.240Z,18.70
2018-11-20T09:00:54.162Z,17.27
2018-11-20T09:03:40.751Z,19.57
2018-11-20T09:06:27.504Z,18.40
2018-11-20T09:09:18.226Z,19.20
2018-11-20T09:12:09.036Z,18.20
2018-11-20T09:14:59.850Z,18.00
2018-11-20T09:17:46.494Z,18.20
2018-11-20T09:20:33.077Z,17.73
2018-11-20T09:23:19.686Z,17.57
2018-11-20T09:26:03.817Z,17.93
2018-11-20T09:28:52.046Z,18.23
2018-11-20T09:31:33.054Z,17.57
2018-11-20T09:34:21.312Z,18.07
2018-11-20T09:37:09.600Z,18.73
2018-11-20T09:40:11.187Z,17.40
2018-11-20T09:43:08.510Z,18.47
2018-11-20T09:46:09.738Z,17.17
2018-11-20T09:49:12.573Z,19.20
2018-11-20T09:52:06.277Z,18.00
2018-11-20T09:54:57.500Z,17.70
2018-11-20T09:57:43.087Z,18.63
2018-11-20T10:00:37.161Z,18.20
2018-11-20T10:03:37.179Z,17.20
2018-11-20T10:06:17.582Z,19.10
2018-11-20T10:09:05.983Z,16.50
2018-11-20T10:11:57.264Z,18.47
2018-11-20T10:14:41.825Z,16.80
2018-11-20T10:17:35.793Z,17.53
2018-11-20T10:20:17.686Z,17.97
2018-11-20T10:23:03.045Z,16.33
2018-11-20T10:26:06.344Z,17.20
2018-11-20T10:28:52.573Z,17.87
2018-11-20T10:31:43.962Z,17.63
2018-11-20T10:34:23.985Z,17.60
2018-11-20T10:37:30.281Z,16.50
2018-11-20T10:40:25.110Z,18.17
2018-11-20T10:43:28.367Z,17.17
2018-11-20T10:46:16.654Z,18.13
2018-11-20T10:49:22.872Z,18.23
2018-11-20T10:52:17.100Z,15.90
2018-11-20T10:55:03.808Z,17.97
2018-11-20T10:57:54.964Z,18.43
2018-11-20T11:00:41.622Z,18.00
2018-11-20T11:03:44.982Z,18.20
2018-11-20T11:06:49.074Z,18.10
2018-11-20T11:09:21.977Z,16.50
2018-11-20T11:12:17.183Z,17.03
2018-11-20T11:15:03.950Z,17.33
2018-11-20T11:17:52.124Z,19.13
2018-11-20T11:20:52.453Z,17.30
2018-11-20T11:23:38.891Z,18.10
2018-11-20T11:26:25.658Z,18.70
2018-11-20T11:29:25.328Z,17.70
2018-11-20T11:32:14.256Z,17.30
2018-11-20T11:35:00.816Z,17.10
2018-11-20T11:37:47.827Z,17.60
2018-11-20T11:40:34.582Z,18.60
2018-11-20T11:43:11.894Z,18.13
2018-11-20T11:46:00.166Z,18.00
2018-11-20T11:48:48.508Z,23.27
2018-11-20T11:51:35.151Z,18.13
2018-11-20T11:54:20.600Z,16.90
2018-11-20T11:57:17.702Z,18.00
2018-11-20T12:00:04.334Z,17.53
2018-11-20T12:05:38.396Z,16.63
2018-11-20T12:08:25.099Z,17.97
2018-11-20T12:11:18.905Z,18.00
2018-11-20T12:14:05.591Z,18.80
2018-11-20T12:17:11.813Z,17.60
2018-11-20T12:19:55.063Z,16.93
2018-11-20T12:22:43.398Z,18.47
2018-11-20T12:25:29.054Z,17.73
2018-11-20T12:28:16.792Z,17.10
2018-11-20T12:31:13.332Z,17.00
2018-11-20T12:34:01.581Z,17.87
2018-11-20T12:36:48.862Z,15.97
2018-11-20T12:39:45.367Z,16.50
2018-11-20T12:42:33.597Z,16.23
2018-11-20T12:45:22.845Z,16.37
2018-11-20T12:48:14.838Z,14.83
2018-11-20T12:51:05.495Z,13.93
2018-11-20T12:53:52.439Z,12.27
2018-11-20T12:56:39.052Z,12.40
2018-11-20T12:59:25.673Z,12.70
2018-11-20T13:02:23.250Z,11.20
2018-11-20T13:05:23.083Z,11.57
2018-11-20T13:08:17.053Z,11.97
2018-11-20T13:11:03.703Z,12.57
2018-11-20T13:13:50.192Z,11.90
2018-11-20T13:16:28.447Z,12.27
2018-11-20T13:19:19.603Z,11.33
2018-11-20T13:22:25.657Z,11.23
2018-11-20T13:25:31.800Z,11.17
2018-11-20T13:28:18.333Z,11.20
2018-11-20T13:31:12.736Z,11.30
2018-11-20T13:33:59.318Z,10.33
2018-11-20T13:36:45.867Z,11.90
2018-11-20T13:39:27.181Z,11.27
2018-11-20T13:42:11.881Z,12.47
2018-11-20T13:45:04.850Z,11.37
2018-11-20T13:47:55.777Z,13.10
2018-11-20T13:50:52.916Z,12.40
2018-11-20T13:53:59.046Z,12.53
2018-11-20T13:56:45.686Z,13.10
2018-11-20T13:59:45.971Z,12.27
2018-11-20T14:02:43.713Z,12.47
2018-11-20T14:05:27.356Z,12.70
2018-11-20T14:08:26.185Z,18.00
2018-11-20T14:11:15.608Z,13.00
2018-11-20T14:14:04.621Z,12.60
2018-11-20T14:16:58.930Z,13.07
2018-11-20T14:19:47.091Z,14.03
2018-11-20T14:22:26.782Z,13.10
2018-11-20T14:25:03.657Z,12.23
2018-11-20T14:27:51.834Z,12.70
2018-11-20T14:30:42.663Z,14.20
2018-11-20T14:33:42.860Z,14.23
2018-11-20T14:36:31.097Z,13.83
2018-11-20T14:39:31.683Z,13.07
2018-11-20T14:42:18.431Z,14.03
2018-11-20T14:45:24.402Z,14.70
2018-11-20T14:48:18.473Z,14.27
2018-11-20T14:51:15.400Z,15.00
2018-11-20T14:53:58.667Z,14.60
2018-11-20T14:56:45.347Z,13.87
2018-11-20T14:59:36.212Z,14.70
2018-11-20T15:02:25.958Z,14.10
2018-11-20T15:05:10.638Z,14.30
2018-11-20T15:07:59.248Z,15.40
2018-11-20T15:10:48.444Z,15.00
2018-11-20T15:13:35.107Z,15.50
2018-11-20T15:16:26.087Z,15.73
2018-11-20T15:19:14.993Z,14.53
2018-11-20T15:22:01.913Z,15.30
2018-11-20T15:24:59.152Z,15.33
2018-11-20T15:27:41.398Z,15.20
2018-11-20T15:30:24.211Z,17.23
2018-11-20T15:33:23.294Z,17.10
2018-11-20T15:36:11.525Z,15.37
2018-11-20T15:39:11.476Z,15.07
2018-11-20T15:41:58.379Z,16.13
2018-11-20T15:44:45.300Z,15.47
2018-11-20T15:47:33.158Z,15.83
2018-11-20T15:50:15.151Z,16.77
2018-11-20T15:52:55.075Z,17.63
2018-11-20T15:55:41.916Z,16.00
2018-11-20T15:58:32.769Z,16.80
2018-11-20T16:01:23.202Z,16.70
2018-11-20T16:04:06.375Z,17.90
2018-11-20T16:06:53.076Z,19.70
2018-11-20T16:09:31.356Z,21.60
2018-11-20T16:12:19.564Z,17.80
2018-11-20T16:15:07.728Z,17.27
2018-11-20T16:17:54.342Z,18.10
2018-11-20T16:20:44.404Z,17.17
2018-11-20T16:23:38.366Z,17.27
2018-11-20T16:26:24.983Z,15.90
2018-11-20T16:29:05.496Z,18.00
2018-11-20T16:31:53.698Z,17.30
2018-11-20T16:35:02.505Z,17.13
2018-11-20T16:37:48.923Z,15.47
2018-11-20T16:40:43.294Z,17.47
2018-11-20T16:43:29.725Z,17.93
2018-11-20T16:46:19.886Z,16.50
2018-11-20T16:49:06.700Z,16.33
2018-11-20T16:51:57.826Z,19.07
2018-11-20T16:54:45.326Z,18.40
2018-11-20T16:57:32.218Z,17.77
2018-11-20T17:00:18.850Z,17.47
2018-11-20T17:03:05.584Z,17.40
2018-11-20T17:06:05.995Z,17.97
2018-11-20T17:08:54.387Z,18.37
2018-11-20T17:11:50.078Z,18.47
2018-11-20T17:14:44.301Z,16.90
2018-11-20T17:17:50.356Z,17.63
2018-11-20T17:20:50.619Z,19.27
2018-11-20T17:23:53.809Z,18.50
2018-11-20T17:26:48.130Z,17.27
2018-11-20T17:29:51.250Z,17.70
2018-11-20T17:32:49.545Z,18.70
2018-11-20T17:35:37.177Z,19.27
2018-11-20T17:38:25.893Z,18.00
2018-11-20T17:41:29.355Z,18.87
2018-11-20T17:44:07.308Z,17.80
2018-11-20T17:47:00.488Z,17.27
2018-11-20T17:49:48.761Z,17.70
2018-11-20T17:52:39.833Z,17.97
2018-11-20T17:55:26.212Z,17.73
2018-11-20T17:58:13.143Z,18.17
2018-11-20T18:01:06.922Z,18.30
2018-11-20T18:04:00.786Z,18.50
2018-11-20T18:06:41.966Z,18.90
2018-11-20T18:09:28.533Z,17.93
2018-11-20T18:12:16.745Z,18.07
2018-11-20T18:15:03.535Z,18.60
2018-11-20T18:18:00.514Z,18.53
2018-11-20T18:21:00.525Z,18.90
2018-11-20T18:23:40.336Z,18.70
2018-11-20T18:26:22.609Z,18.97
2018-11-20T18:29:09.498Z,18.30
2018-11-20T18:31:56.888Z,18.03
2018-11-20T18:34:57.039Z,18.60
2018-11-20T18:38:00.211Z,19.30
2018-11-20T18:40:51.130Z,17.40
2018-11-20T18:43:28.159Z,19.00
2018-11-20T18:46:19.125Z,18.50
2018-11-20T18:49:19.056Z,18.40
2018-11-20T18:52:05.805Z,18.00
2018-11-20T18:54:52.598Z,19.10
2018-11-20T18:57:59.034Z,18.47
2018-11-20T19:00:42.337Z,23.63
2018-11-20T19:03:33.297Z,18.60
2018-11-20T19:06:19.793Z,19.23
